Stuart, Oklahoma
Current Conditions -  °F | °C
As of 6:53 AM on Monday 20 Oct 2014 (Local Time) from KMLC Reporting Station
Scattered Clouds Scattered Clouds  
Wind Chill: 54°   Ceiling: Unl
Heat Index: 54°   Visibility: 10mi
Dew Point: 50°   Wind: 5mph
Humidity: 86%   Direction: 200°SSW
Pressure: 30.07"   Gusts: NA
Location:  34.9°N, 96.1°W
Report Text: KMLC 201153Z AUTO 20004KT 10SM SCT070 12/10 A3007 RMK AO2 SLP179 T01220100 10156 20122 53007
Loading
Personal Weather Stations






























Interactive Weather Map
Tropical Storm Tracking
New forecast layout! Learn more

10-Day Weather Forecast

Advertisements
Track Severe Weather on mobile